Terminal Aerodrome Forecast
Issued by NWS Knoxville/Tri Cities, TN

Home | Current Version | Previous Version | Text Only | Print | Product List | Glossary On
Versions: 1 2 3 4 5 6 7 8 9 10 11 12 13 14 15 16 17 18 19 20 21 22 23 24 25 26 27 28
604
FTUS44 KMRX 141135
TAFTRI
TAF
KTRI 141135Z 1412/1512 VRB03KT P6SM SCT030 BKN060
     FM141600 06005KT P6SM -SN BKN035
     FM142100 08008KT 5SM -SN OVC030
     FM150000 06006KT 3SM -SN OVC020
     FM150500 07008KT 5SM -SN SCT020 OVC040=

USA.gov is the U.S. government's official web portal to all federal, state and local government web resources and services.